Time;durP1;ratioP1;P1;durP2;ratioP2;P2;SDS_P1;SDS_P2;PMS_P1;PMS_P2;Temp;Humidity;BMP_temperature;BMP_pressure;BME280_temperature;BME280_humidity;BME280_pressure;Samples;Min_cycle;Max_cycle;Signal;HPM_P1;HPM_P2
2021/05/18 00:01:39;;;;;;;10.80;7.57;;;11.30;99.90;;;;;;4921854;29;20196;-69
2021/05/18 00:04:05;;;;;;;14.20;9.63;;;11.40;99.90;;;;;;4937436;29;20570;-70
2021/05/18 00:06:31;;;;;;;11.23;9.07;;;11.40;99.90;;;;;;4924072;29;20190;-70
2021/05/18 00:11:44;;;;;;;13.63;8.60;;;11.40;99.90;;;;;;4922380;29;20490;-70
2021/05/18 00:14:17;;;;;;;15.80;8.97;;;11.50;99.90;;;;;;4919908;29;20430;-70
2021/05/18 00:16:43;;;;;;;13.55;9.00;;;11.50;99.90;;;;;;4920885;29;20445;-69
2021/05/18 00:19:08;;;;;;;11.70;9.30;;;11.50;99.90;;;;;;4920202;29;20187;-70
2021/05/18 00:21:35;;;;;;;15.10;9.57;;;11.60;99.90;;;;;;4920228;29;20171;-69
2021/05/18 00:24:01;;;;;;;12.57;8.65;;;11.60;99.90;;;;;;4919369;29;20450;-70
2021/05/18 00:26:27;;;;;;;15.27;9.90;;;11.60;99.90;;;;;;4920346;29;20184;-70
2021/05/18 00:28:52;;;;;;;14.60;9.50;;;11.50;99.90;;;;;;4920696;29;20760;-70
2021/05/18 00:31:18;;;;;;;14.90;9.20;;;11.50;99.90;;;;;;4919712;29;20501;-70
2021/05/18 00:33:43;;;;;;;13.33;9.17;;;11.40;99.90;;;;;;4919609;29;20183;-70
2021/05/18 00:36:10;;;;;;;14.13;8.93;;;11.40;99.90;;;;;;4919871;29;20688;-69
2021/05/18 00:38:36;;;;;;;15.07;10.10;;;11.30;99.90;;;;;;4920490;29;20249;-69
2021/05/18 00:41:04;;;;;;;13.70;9.00;;;11.30;99.90;;;;;;4919547;29;20411;-69
2021/05/18 00:43:29;;;;;;;11.80;8.73;;;11.30;99.90;;;;;;4919440;29;20465;-69
2021/05/18 00:45:55;;;;;;;16.80;10.47;;;11.30;99.90;;;;;;4919385;29;20761;-70
2021/05/18 00:48:22;;;;;;;14.83;10.13;;;11.30;99.90;;;;;;4920436;29;20202;-69
2021/05/18 00:50:52;;;;;;;17.07;12.07;;;11.40;99.90;;;;;;4919562;29;20182;-69
2021/05/18 00:53:18;;;;;;;11.73;10.10;;;11.40;99.90;;;;;;4919482;29;20410;-70
2021/05/18 00:55:51;;;;;;;14.93;10.87;;;11.40;99.90;;;;;;4919610;29;20502;-69
2021/05/18 00:58:26;;;;;;;14.90;10.53;;;11.40;99.90;;;;;;4919271;29;20400;-70
2021/05/18 01:00:54;;;;;;;15.57;10.23;;;11.30;99.90;;;;;;4920597;29;20466;-69
2021/05/18 01:03:20;;;;;;;14.30;10.97;;;11.30;99.90;;;;;;4918669;29;20475;-69
2021/05/18 01:08:30;;;;;;;16.37;12.10;;;11.30;99.90;;;;;;4919210;29;20932;-70
2021/05/18 01:10:56;;;;;;;20.30;11.50;;;11.30;99.90;;;;;;4930125;29;20434;-70
2021/05/18 01:13:21;;;;;;;15.33;10.40;;;11.30;99.90;;;;;;4937900;29;20181;-70
2021/05/18 01:15:47;;;;;;;14.97;11.50;;;11.30;99.90;;;;;;4937906;29;20209;-70
2021/05/18 01:18:13;;;;;;;13.33;11.30;;;11.40;99.90;;;;;;4937785;29;20417;-69
2021/05/18 01:20:41;;;;;;;14.93;11.63;;;11.40;99.90;;;;;;4936236;29;21018;-69
2021/05/18 01:23:06;;;;;;;16.47;11.67;;;11.40;99.90;;;;;;4937392;29;20233;-69
2021/05/18 01:25:32;;;;;;;13.77;12.17;;;11.40;99.90;;;;;;4937462;29;20442;-69
2021/05/18 01:27:57;;;;;;;15.20;10.43;;;11.30;99.90;;;;;;4938002;28;20269;-70
2021/05/18 01:30:23;;;;;;;15.73;10.70;;;11.30;99.90;;;;;;4938183;29;20179;-70
2021/05/18 01:32:49;;;;;;;12.10;10.07;;;11.30;99.90;;;;;;4936409;29;20182;-70
2021/05/18 01:35:14;;;;;;;14.70;11.70;;;11.30;99.90;;;;;;4937496;29;20202;-70
2021/05/18 01:37:42;;;;;;;14.87;10.77;;;11.30;99.90;;;;;;4937823;29;20253;-70
2021/05/18 01:42:47;;;;;;;18.63;12.03;;;11.40;99.90;;;;;;4936417;29;20465;-69
2021/05/18 01:45:19;;;;;;;17.27;11.37;;;11.40;99.90;;;;;;4938680;29;20961;-69
2021/05/18 01:47:50;;;;;;;14.70;11.43;;;11.40;99.90;;;;;;4938975;29;20411;-69
2021/05/18 01:50:16;;;;;;;12.07;10.53;;;11.50;99.90;;;;;;4936865;29;20406;-70
2021/05/18 01:52:42;;;;;;;17.63;12.83;;;11.50;99.90;;;;;;4938378;29;20550;-70
2021/05/18 01:55:10;;;;;;;17.27;13.33;;;11.50;99.90;;;;;;4939263;29;20430;-69
2021/05/18 01:57:36;;;;;;;18.17;13.37;;;11.40;99.90;;;;;;4939026;28;20426;-69
2021/05/18 02:00:04;;;;;;;21.50;14.27;;;11.40;99.90;;;;;;4938394;29;20757;-69
2021/05/18 02:02:30;;;;;;;19.30;14.10;;;11.20;99.90;;;;;;4937615;29;20198;-69
2021/05/18 02:04:59;;;;;;;20.70;14.30;;;11.30;99.90;;;;;;4938779;29;20527;-69
2021/05/18 02:07:29;;;;;;;20.97;15.60;;;11.20;99.90;;;;;;4938405;29;20522;-69
2021/05/18 02:09:56;;;;;;;21.80;14.97;;;11.20;99.90;;;;;;4936849;29;20426;-69
2021/05/18 02:12:21;;;;;;;20.57;14.87;;;11.20;99.90;;;;;;4937619;28;20469;-69
2021/05/18 02:14:51;;;;;;;21.83;15.10;;;11.30;99.90;;;;;;4937157;29;20485;-69
2021/05/18 02:17:40;;;;;;;18.10;15.27;;;11.30;99.90;;;;;;4937791;29;20181;-69
2021/05/18 02:25:16;;;;;;;20.27;15.33;;;11.20;99.90;;;;;;4937031;29;20469;-69
2021/05/18 02:27:42;;;;;;;19.17;15.47;;;11.30;99.90;;;;;;4936876;28;20477;-70
2021/05/18 02:30:09;;;;;;;21.43;15.27;;;11.30;99.90;;;;;;4936102;29;20455;-69
2021/05/18 02:32:36;;;;;;;22.50;15.50;;;11.30;99.90;;;;;;4936522;29;20173;-70
2021/05/18 02:35:02;;;;;;;19.23;15.20;;;11.40;99.90;;;;;;4935823;29;20450;-70
2021/05/18 02:37:28;;;;;;;21.27;16.60;;;11.40;99.90;;;;;;4936556;29;20461;-69
2021/05/18 02:39:54;;;;;;;19.83;17.20;;;11.30;99.90;;;;;;4936579;29;20441;-69
2021/05/18 02:42:19;;;;;;;21.00;16.80;;;11.30;99.90;;;;;;4935104;29;20793;-69
2021/05/18 02:44:55;;;;;;;17.70;15.80;;;11.30;99.90;;;;;;4936315;29;20688;-69
2021/05/18 02:50:05;;;;;;;18.83;14.67;;;11.20;99.90;;;;;;4936808;29;20454;-69
2021/05/18 02:52:32;;;;;;;21.30;15.23;;;11.30;99.90;;;;;;4934699;29;20790;-69
2021/05/18 02:54:58;;;;;;;15.90;14.03;;;11.20;99.90;;;;;;4936484;29;20438;-69
2021/05/18 02:57:34;;;;;;;17.53;13.17;;;11.20;99.90;;;;;;4936684;29;20414;-69
2021/05/18 03:00:05;;;;;;;16.37;13.50;;;11.20;99.90;;;;;;4936678;29;20499;-70
2021/05/18 03:02:30;;;;;;;15.60;12.90;;;11.20;99.90;;;;;;4934199;28;20485;-70
2021/05/18 03:04:56;;;;;;;16.20;13.57;;;11.20;99.90;;;;;;4936286;29;20492;-69
2021/05/18 03:07:21;;;;;;;18.37;13.50;;;11.30;99.90;;;;;;4937193;29;20189;-69
2021/05/18 03:09:47;;;;;;;17.60;13.70;;;11.30;99.90;;;;;;4937073;29;20178;-69
2021/05/18 03:12:12;;;;;;;12.70;11.40;;;11.30;99.90;;;;;;4936354;29;20253;-69
2021/05/18 03:14:38;;;;;;;11.63;10.40;;;11.20;99.90;;;;;;4934249;29;20198;-70
2021/05/18 03:17:04;;;;;;;11.93;10.57;;;11.10;99.90;;;;;;4936770;29;20628;-69
2021/05/18 03:19:30;;;;;;;13.80;11.20;;;11.10;99.90;;;;;;4936634;29;20214;-70
2021/05/18 03:21:55;;;;;;;11.37;10.00;;;11.10;99.90;;;;;;4939924;29;20766;-69
2021/05/18 03:24:21;;;;;;;10.90;9.80;;;11.10;99.90;;;;;;4937048;28;20448;-70
2021/05/18 03:26:48;;;;;;;10.03;9.03;;;11.00;99.90;;;;;;4942260;29;20175;-68
2021/05/18 03:29:20;;;;;;;9.37;8.50;;;11.10;99.90;;;;;;4940230;29;20636;-69
2021/05/18 03:34:37;;;;;;;12.00;8.60;;;11.10;99.90;;;;;;4934510;29;20465;-69
2021/05/18 03:37:14;;;;;;;10.40;7.50;;;11.10;99.90;;;;;;4936136;29;20426;-70
2021/05/18 03:39:41;;;;;;;8.13;7.33;;;11.10;99.90;;;;;;4936572;29;20398;-69
2021/05/18 03:52:34;;;;;;;8.80;7.33;;;11.10;99.90;;;;;;4920755;29;20417;-69
2021/05/18 03:55:08;;;;;;;7.70;7.00;;;11.00;99.90;;;;;;4920384;29;20434;-69
2021/05/18 04:03:13;;;;;;;8.13;7.30;;;11.10;99.90;;;;;;4920497;29;20470;-69
2021/05/18 04:26:53;;;;;;;9.77;8.77;;;11.00;99.90;;;;;;4939028;29;20454;-70
2021/05/18 04:50:53;;;;;;;13.40;11.97;;;11.10;99.90;;;;;;4937598;29;20513;-68
2021/05/18 04:59:02;;;;;;;13.10;11.70;;;11.10;99.90;;;;;;4937408;29;20393;-69
2021/05/18 05:06:27;;;;;;;12.73;11.13;;;11.00;99.90;;;;;;4918943;29;20191;-70
2021/05/18 05:09:21;;;;;;;14.37;11.53;;;11.10;99.90;;;;;;4919240;29;20479;-68
2021/05/18 05:14:25;;;;;;;17.00;11.43;;;11.10;99.90;;;;;;4937742;29;20440;-70
2021/05/18 05:16:52;;;;;;;14.13;11.43;;;11.10;99.90;;;;;;4937805;29;20417;-69
2021/05/18 05:19:20;;;;;;;12.93;10.93;;;11.10;99.90;;;;;;4938286;29;20177;-69
2021/05/18 05:21:45;;;;;;;12.70;10.40;;;11.10;99.90;;;;;;4936361;29;20426;-68
2021/05/18 05:24:12;;;;;;;17.10;11.00;;;11.10;99.90;;;;;;4937972;29;20469;-69
2021/05/18 05:26:40;;;;;;;16.27;10.00;;;11.20;99.90;;;;;;4937750;29;20202;-69
2021/05/18 05:29:07;;;;;;;15.80;9.73;;;11.30;99.90;;;;;;4937763;29;20406;-69
2021/05/18 05:31:33;;;;;;;12.10;10.07;;;11.30;99.90;;;;;;4936112;29;20432;-70
2021/05/18 05:33:58;;;;;;;14.83;10.60;;;11.30;99.90;;;;;;4937224;28;20872;-69
2021/05/18 05:36:24;;;;;;;13.63;10.52;;;11.30;99.90;;;;;;4938001;29;20504;-69
2021/05/18 05:38:50;;;;;;;12.67;10.20;;;11.40;99.90;;;;;;4937446;29;20171;-69
2021/05/18 05:41:18;;;;;;;17.30;10.80;;;11.40;99.90;;;;;;4937273;29;20167;-69
2021/05/18 05:43:43;;;;;;;15.00;11.23;;;11.50;99.90;;;;;;4935715;29;20524;-69
2021/05/18 05:46:09;;;;;;;15.10;10.57;;;11.50;99.90;;;;;;4937552;28;20309;-70
2021/05/18 05:48:35;;;;;;;13.30;9.30;;;11.50;99.90;;;;;;4937372;29;20555;-69
2021/05/18 05:51:02;;;;;;;13.87;10.53;;;11.60;99.90;;;;;;4952011;29;20174;-69
2021/05/18 05:53:28;;;;;;;15.27;11.30;;;11.50;99.90;;;;;;4927241;29;20458;-69
2021/05/18 05:55:53;;;;;;;14.50;11.07;;;11.60;99.90;;;;;;4937219;29;20442;-69
2021/05/18 05:58:19;;;;;;;17.93;11.23;;;11.60;99.90;;;;;;4920578;29;20171;-69
2021/05/18 06:00:45;;;;;;;13.80;11.57;;;11.50;99.90;;;;;;4932369;29;20253;-69
2021/05/18 06:03:10;;;;;;;13.07;10.20;;;11.40;99.90;;;;;;4936022;29;20718;-70
2021/05/18 06:05:36;;;;;;;15.43;11.90;;;11.40;99.90;;;;;;4937310;29;20695;-68
2021/05/18 06:08:02;;;;;;;15.30;11.27;;;11.40;99.90;;;;;;4937474;29;20309;-69
2021/05/18 06:10:31;;;;;;;14.03;11.20;;;11.50;99.90;;;;;;4924951;29;20506;-69
2021/05/18 06:13:10;;;;;;;14.47;11.80;;;11.50;99.90;;;;;;4923869;29;20726;-69
2021/05/18 06:34:07;;;;;;;17.63;12.53;;;11.90;99.90;;;;;;4933433;29;20421;-70
2021/05/18 06:35:37;;;;;;;16.50;13.50;;;11.80;99.90;;;;;;4921492;29;20559;-71
2021/05/18 06:43:37;;;;;;;17.17;13.63;;;11.80;99.90;;;;;;4932804;29;20480;-69
2021/05/18 06:46:18;;;;;;;19.92;15.68;;;11.70;99.90;;;;;;4928161;29;20431;-69
2021/05/18 06:48:48;;;;;;;15.87;14.00;;;11.80;99.90;;;;;;4926926;29;20200;-70
2021/05/18 06:51:13;;;;;;;16.00;14.20;;;11.80;99.90;;;;;;4932845;29;20958;-70
2021/05/18 06:53:39;;;;;;;15.83;13.50;;;11.90;99.90;;;;;;4920231;29;20452;-71
2021/05/18 06:56:05;;;;;;;16.83;13.50;;;11.80;99.90;;;;;;4928748;29;20253;-69
2021/05/18 07:01:05;;;;;;;18.67;13.23;;;12.00;99.90;;;;;;4932726;29;20780;-69
2021/05/18 07:03:36;;;;;;;20.00;14.10;;;11.90;99.90;;;;;;4932326;29;20469;-69
2021/05/18 07:06:21;;;;;;;17.37;14.00;;;11.90;99.90;;;;;;4932819;29;20445;-69
2021/05/18 07:11:13;;;;;;;20.93;12.93;;;11.90;99.90;;;;;;4932931;29;20436;-69
2021/05/18 07:13:39;;;;;;;15.20;13.43;;;12.00;99.90;;;;;;4932568;29;20465;-69
2021/05/18 07:16:05;;;;;;;18.23;13.17;;;12.00;99.90;;;;;;4932772;29;20469;-69
2021/05/18 07:18:30;;;;;;;21.30;14.43;;;12.10;99.90;;;;;;4931511;29;20186;-69
2021/05/18 07:20:56;;;;;;;21.63;14.50;;;12.20;99.90;;;;;;4932175;28;20210;-69
2021/05/18 07:23:24;;;;;;;17.63;13.63;;;12.20;99.90;;;;;;4935444;29;20289;-69
2021/05/18 07:25:50;;;;;;;18.43;13.80;;;12.20;99.90;;;;;;4936456;29;20289;-69
2021/05/18 07:28:16;;;;;;;14.80;13.20;;;12.30;99.90;;;;;;4935296;29;20517;-69
2021/05/18 07:30:42;;;;;;;18.63;14.40;;;12.20;99.90;;;;;;4929666;29;20197;-69
2021/05/18 07:33:08;;;;;;;16.00;14.40;;;12.30;99.90;;;;;;4935888;29;20437;-70
2021/05/18 07:35:35;;;;;;;22.23;16.53;;;12.30;99.90;;;;;;4936278;29;20437;-69
2021/05/18 07:38:00;;;;;;;20.53;14.77;;;12.30;99.90;;;;;;4936233;29;20422;-69
2021/05/18 07:40:26;;;;;;;17.20;14.40;;;12.30;99.90;;;;;;4933196;29;20496;-69
2021/05/18 07:42:52;;;;;;;20.00;15.40;;;12.30;99.90;;;;;;4935983;29;20657;-69
2021/05/18 07:45:26;;;;;;;19.97;14.07;;;12.20;99.90;;;;;;4936152;29;20245;-68
2021/05/18 07:48:00;;;;;;;15.67;14.07;;;12.20;99.90;;;;;;4935869;29;20182;-70
2021/05/18 07:50:41;;;;;;;19.42;16.58;;;12.20;99.90;;;;;;4918146;29;20431;-69
2021/05/18 08:07:05;;;;;;;23.30;15.10;;;12.90;99.90;;;;;;4935410;29;20449;-70
2021/05/18 08:09:32;;;;;;;15.87;13.20;;;12.90;99.90;;;;;;4935737;29;20429;-69
2021/05/18 08:11:57;;;;;;;16.27;13.87;;;13.00;99.90;;;;;;4932118;29;20213;-69
2021/05/18 08:14:25;;;;;;;20.17;15.90;;;13.20;99.90;;;;;;4934820;29;20508;-69
2021/05/18 10:38:49;;;;;;;16.27;14.13;;;13.30;99.90;;;;;;4936304;29;20982;-70
2021/05/18 10:41:27;;;;;;;21.57;14.37;;;13.20;99.90;;;;;;4936596;29;20521;-70
2021/05/18 10:43:57;;;;;;;26.73;15.00;;;13.30;99.90;;;;;;4929359;29;20474;-71
2021/05/18 10:46:25;;;;;;;17.20;13.90;;;13.50;99.90;;;;;;4916782;29;20445;-69
2021/05/18 10:49:08;;;;;;;14.23;11.50;;;13.50;99.90;;;;;;4917899;29;20806;-70
2021/05/18 10:51:50;;;;;;;13.50;11.73;;;13.80;99.90;;;;;;4917176;29;20427;-70
2021/05/18 10:54:19;;;;;;;15.13;12.68;;;14.00;99.90;;;;;;4917852;29;20437;-68
2021/05/18 10:56:57;;;;;;;13.30;11.23;;;14.30;99.90;;;;;;4916677;29;20193;-68
2021/05/18 10:59:23;;;;;;;12.90;11.23;;;14.30;99.90;;;;;;4917230;29;20462;-71
2021/05/18 11:02:06;;;;;;;14.03;12.63;;;14.40;99.90;;;;;;4931450;29;20422;-70
2021/05/18 11:04:38;;;;;;;15.60;13.30;;;14.40;99.90;;;;;;4933346;29;20493;-71
2021/05/18 11:07:05;;;;;;;17.50;13.87;;;14.30;99.90;;;;;;4917296;29;20506;-70
2021/05/18 11:09:32;;;;;;;17.60;15.80;;;14.40;99.90;;;;;;4921175;29;20434;-70
2021/05/18 11:12:15;;;;;;;16.97;14.93;;;14.50;99.90;;;;;;4936752;29;20768;-70
2021/05/18 11:14:58;;;;;;;17.10;15.30;;;14.90;99.90;;;;;;4935624;29;20523;-70
2021/05/18 11:17:30;;;;;;;17.70;15.67;;;15.10;99.90;;;;;;4932820;28;20904;-70
2021/05/18 11:20:14;;;;;;;13.77;12.37;;;15.00;99.90;;;;;;4935884;29;20414;-69
2021/05/18 11:25:46;;;;;;;8.90;8.00;;;14.30;99.90;;;;;;4935851;29;20930;-69
2021/05/18 11:28:37;;;;;;;9.53;7.67;;;13.90;99.90;;;;;;4917507;29;20761;-69
2021/05/18 11:31:05;;;;;;;8.00;7.30;;;13.60;99.90;;;;;;4917069;29;20753;-69
2021/05/18 11:33:33;;;;;;;7.87;7.07;;;13.50;99.90;;;;;;4916639;29;20411;-68
2021/05/18 11:36:08;;;;;;;7.50;6.80;;;13.40;99.90;;;;;;4917118;29;20435;-69
2021/05/18 11:38:35;;;;;;;7.20;6.50;;;13.40;99.90;;;;;;4917918;29;20826;-69
2021/05/18 11:41:00;;;;;;;6.30;5.80;;;13.50;99.90;;;;;;4916802;29;20526;-69
2021/05/18 11:43:36;;;;;;;6.57;5.97;;;13.60;99.90;;;;;;4916833;29;20562;-69
2021/05/18 11:46:05;;;;;;;6.73;6.13;;;13.80;99.90;;;;;;4916698;29;20253;-69
2021/05/18 11:48:31;;;;;;;7.30;6.30;;;13.90;99.90;;;;;;4928806;29;20422;-69
2021/05/18 11:51:06;;;;;;;8.53;7.83;;;14.10;99.90;;;;;;4937075;29;20424;-69
2021/05/18 11:53:36;;;;;;;11.40;7.30;;;14.10;99.90;;;;;;4935694;29;20206;-70
2021/05/18 11:56:38;;;;;;;23.70;9.53;;;14.10;99.90;;;;;;4935700;29;20435;-70
2021/05/18 11:59:05;;;;;;;12.37;9.50;;;14.30;99.90;;;;;;4846074;29;21365;-70
2021/05/18 12:01:33;;;;;;;9.10;8.20;;;14.40;99.90;;;;;;4850628;29;20446;-70
2021/05/18 12:04:00;;;;;;;9.73;8.83;;;14.40;99.90;;;;;;4858425;29;20453;-70
2021/05/18 12:06:26;;;;;;;9.20;8.40;;;14.30;99.90;;;;;;4858268;29;20445;-70
2021/05/18 12:08:56;;;;;;;8.63;7.80;;;14.20;99.90;;;;;;4858554;29;20910;-70
2021/05/18 12:11:22;;;;;;;9.67;8.73;;;14.30;99.90;;;;;;4861633;29;20173;-70
2021/05/18 12:13:50;;;;;;;9.00;8.20;;;14.30;99.90;;;;;;4861697;29;20428;-70
2021/05/18 12:16:17;;;;;;;9.97;8.43;;;14.20;99.90;;;;;;4861954;29;20713;-70
2021/05/18 12:18:43;;;;;;;10.33;9.33;;;14.20;99.90;;;;;;4861346;29;20980;-71
2021/05/18 12:21:13;;;;;;;11.47;9.07;;;14.20;99.90;;;;;;4860491;29;20437;-70
2021/05/18 12:23:39;;;;;;;9.83;8.90;;;14.30;99.90;;;;;;4861106;29;20464;-70
2021/05/18 12:26:10;;;;;;;9.23;8.33;;;14.40;99.90;;;;;;4861348;29;20786;-70
2021/05/18 12:28:35;;;;;;;8.83;8.03;;;14.40;99.90;;;;;;4861816;29;20433;-70
2021/05/18 12:31:01;;;;;;;11.67;9.43;;;14.40;99.90;;;;;;4859509;29;20429;-70
2021/05/18 12:33:37;;;;;;;10.43;9.40;;;14.40;99.90;;;;;;4914756;29;20657;-70
2021/05/18 12:36:07;;;;;;;11.27;10.17;;;14.40;99.90;;;;;;4938763;29;20445;-70
2021/05/18 12:38:33;;;;;;;16.27;11.10;;;14.50;99.90;;;;;;4938449;29;20417;-71
2021/05/18 12:41:05;;;;;;;15.13;10.57;;;14.50;99.90;;;;;;4933283;28;20222;-71
2021/05/18 12:43:39;;;;;;;11.87;10.53;;;14.60;99.90;;;;;;4919458;29;20458;-70
2021/05/18 12:46:12;;;;;;;14.70;12.10;;;14.70;99.90;;;;;;4917948;29;20422;-70
2021/05/18 12:48:42;;;;;;;10.83;9.80;;;14.80;99.90;;;;;;4919160;29;20688;-70
2021/05/18 12:51:22;;;;;;;12.20;11.00;;;14.90;99.90;;;;;;4920169;28;20421;-70
2021/05/18 12:53:47;;;;;;;10.90;9.90;;;15.10;99.90;;;;;;4918924;29;20472;-70
2021/05/18 12:56:28;;;;;;;10.40;9.47;;;15.50;99.90;;;;;;4919452;29;20434;-70
2021/05/18 12:59:04;;;;;;;13.40;10.10;;;15.80;99.90;;;;;;4919071;29;20227;-69
2021/05/18 13:01:40;;;;;;;12.30;11.10;;;16.20;99.50;;;;;;4928896;29;20501;-70
2021/05/18 13:04:09;;;;;;;6.17;5.60;;;16.10;98.70;;;;;;4918822;29;20966;-70
2021/05/18 13:06:42;;;;;;;5.07;4.67;;;15.50;96.30;;;;;;4919130;29;20473;-70
2021/05/18 13:09:22;;;;;;;7.20;5.20;;;14.70;97.60;;;;;;4919142;29;20399;-70
2021/05/18 13:12:30;;;;;;;6.63;6.07;;;14.40;99.90;;;;;;4918647;29;20430;-70
2021/05/18 13:14:59;;;;;;;6.60;6.00;;;13.80;99.90;;;;;;4915522;29;20446;-69
2021/05/18 13:17:26;;;;;;;7.77;6.97;;;13.60;99.90;;;;;;4919032;29;20435;-69
2021/05/18 13:19:58;;;;;;;10.10;5.40;;;13.70;99.90;;;;;;4918731;29;20426;-69
2021/05/18 13:22:24;;;;;;;6.30;5.50;;;13.40;99.90;;;;;;4918961;29;20512;-69
2021/05/18 13:27:34;;;;;;;5.70;5.13;;;13.00;99.90;;;;;;4924163;29;20418;-69
2021/05/18 13:29:59;;;;;;;5.40;4.90;;;12.80;99.90;;;;;;4924059;29;20463;-69
2021/05/18 13:32:25;;;;;;;6.00;5.50;;;12.60;99.90;;;;;;4938890;29;20429;-69
2021/05/18 13:34:50;;;;;;;6.27;5.17;;;12.80;99.90;;;;;;4943370;28;20252;-69
2021/05/18 13:37:16;;;;;;;8.20;5.23;;;13.00;99.90;;;;;;4942324;29;20520;-69
2021/05/18 13:39:41;;;;;;;6.80;6.10;;;13.30;99.90;;;;;;4940758;29;20639;-69
2021/05/18 13:42:07;;;;;;;8.20;5.40;;;13.40;99.90;;;;;;4943919;29;20206;-69
2021/05/18 13:44:32;;;;;;;7.67;5.80;;;13.60;99.90;;;;;;4946830;29;20256;-69
2021/05/18 13:46:59;;;;;;;11.23;8.03;;;13.70;99.90;;;;;;4946023;29;20182;-69
2021/05/18 13:49:24;;;;;;;5.93;5.47;;;14.00;99.90;;;;;;4944694;29;20177;-69
2021/05/18 13:51:50;;;;;;;7.73;6.00;;;14.00;99.90;;;;;;4938016;28;20443;-69
2021/05/18 13:54:16;;;;;;;7.10;6.00;;;14.10;99.90;;;;;;4929674;29;20186;-69
2021/05/18 13:56:41;;;;;;;6.60;5.90;;;14.30;99.90;;;;;;4925858;29;20215;-70
2021/05/18 13:59:07;;;;;;;5.93;5.43;;;14.30;99.90;;;;;;4919427;29;20266;-69
2021/05/18 14:01:33;;;;;;;5.70;5.17;;;13.90;99.90;;;;;;4928272;29;20422;-69
2021/05/18 14:03:58;;;;;;;6.23;5.60;;;13.90;99.90;;;;;;4936168;29;20212;-69
2021/05/18 14:06:24;;;;;;;6.27;5.67;;;13.80;99.90;;;;;;4935036;28;20206;-70
2021/05/18 14:08:50;;;;;;;6.90;6.30;;;13.90;99.90;;;;;;4937609;29;20206;-69
2021/05/18 14:11:18;;;;;;;6.17;5.67;;;13.90;99.90;;;;;;4937108;29;20177;-70
2021/05/18 14:13:46;;;;;;;6.87;6.27;;;13.90;99.90;;;;;;4935476;29;20476;-70
2021/05/18 14:16:15;;;;;;;7.77;6.93;;;13.90;99.90;;;;;;4936632;29;20570;-70
2021/05/18 14:18:41;;;;;;;6.13;5.63;;;14.00;99.90;;;;;;4936993;29;20549;-70
2021/05/18 14:21:07;;;;;;;7.00;5.97;;;14.00;99.90;;;;;;4936171;28;20796;-69
2021/05/18 14:23:40;;;;;;;7.20;6.60;;;14.00;99.90;;;;;;4934755;29;20473;-69
2021/05/18 14:26:07;;;;;;;7.88;7.18;;;14.10;99.90;;;;;;4936191;29;20416;-69
2021/05/18 14:28:33;;;;;;;7.50;6.90;;;14.10;99.90;;;;;;4936624;29;20540;-69
2021/05/18 14:30:58;;;;;;;7.43;6.73;;;14.20;99.90;;;;;;4936626;29;20914;-69
2021/05/18 14:33:24;;;;;;;8.00;7.20;;;14.20;99.90;;;;;;4934790;28;20433;-70
2021/05/18 14:35:49;;;;;;;7.57;6.87;;;14.30;99.90;;;;;;4935563;29;20450;-70
2021/05/18 14:38:18;;;;;;;7.57;6.87;;;14.30;99.90;;;;;;4936421;29;20543;-69
2021/05/18 14:40:56;;;;;;;6.57;5.97;;;14.40;99.90;;;;;;4936915;29;20173;-70
2021/05/18 14:46:07;;;;;;;6.50;5.90;;;14.50;99.90;;;;;;4932889;29;20453;-70
2021/05/18 14:56:08;;;;;;;6.90;6.03;;;15.50;99.90;;;;;;4934960;29;20450;-71
2021/05/18 14:58:33;;;;;;;5.73;5.27;;;15.60;99.90;;;;;;4936091;29;20628;-70
2021/05/18 15:00:59;;;;;;;6.00;5.50;;;16.10;99.90;;;;;;4929346;29;20274;-70
2021/05/18 15:03:28;;;;;;;11.20;5.50;;;16.30;99.90;;;;;;4916808;29;20211;-70
2021/05/18 15:05:53;;;;;;;6.03;5.53;;;16.50;99.90;;;;;;4918266;29;20198;-72
2021/05/18 15:08:18;;;;;;;7.17;5.83;;;16.70;99.90;;;;;;4917214;29;20419;-71
2021/05/18 15:10:46;;;;;;;5.07;4.63;;;16.80;99.60;;;;;;4917353;29;20186;-71
2021/05/18 15:13:12;;;;;;;7.80;5.47;;;16.80;99.20;;;;;;4929082;29;20202;-71
2021/05/18 15:15:38;;;;;;;4.73;4.30;;;16.90;98.90;;;;;;4934611;29;20972;-72
2021/05/18 15:18:04;;;;;;;5.30;4.33;;;16.80;99.00;;;;;;4926353;29;20644;-71
2021/05/18 15:20:30;;;;;;;4.80;4.40;;;16.90;98.90;;;;;;4935420;29;20811;-71
2021/05/18 15:22:55;;;;;;;4.83;4.40;;;16.80;98.50;;;;;;4934904;29;20529;-70
2021/05/18 15:25:21;;;;;;;4.80;4.37;;;16.70;98.50;;;;;;4936233;29;20668;-71
2021/05/18 15:27:47;;;;;;;6.37;5.30;;;16.70;99.10;;;;;;4927451;29;20185;-71
2021/05/18 15:30:13;;;;;;;6.03;5.43;;;16.70;98.90;;;;;;4933826;29;20513;-71
2021/05/18 15:32:39;;;;;;;5.17;4.77;;;16.60;98.40;;;;;;4935945;29;20170;-72
2021/05/18 15:35:07;;;;;;;5.00;4.60;;;16.40;98.40;;;;;;4935442;29;20485;-71
2021/05/18 15:37:34;;;;;;;4.60;4.20;;;16.40;98.40;;;;;;4934164;29;20430;-71
2021/05/18 15:39:59;;;;;;;5.13;4.57;;;16.40;98.50;;;;;;4916856;29;20837;-71
2021/05/18 15:42:25;;;;;;;5.07;4.03;;;16.50;98.20;;;;;;4926678;29;20434;-71
2021/05/18 15:44:51;;;;;;;5.20;4.80;;;16.50;98.30;;;;;;4939487;29;20221;-71
2021/05/18 15:47:17;;;;;;;5.37;4.87;;;16.40;98.70;;;;;;4940107;29;20258;-71
2021/05/18 15:49:43;;;;;;;4.67;4.27;;;16.40;99.10;;;;;;4926787;29;20178;-72
2021/05/18 15:52:08;;;;;;;5.23;4.73;;;16.30;99.30;;;;;;4920670;29;20618;-71
2021/05/18 15:54:34;;;;;;;5.57;5.07;;;16.20;99.60;;;;;;4919586;29;20217;-71
2021/05/18 15:57:01;;;;;;;5.53;5.00;;;16.10;99.30;;;;;;4922455;29;20254;-71
2021/05/18 15:59:26;;;;;;;6.20;5.60;;;15.90;99.70;;;;;;4925196;29;20178;-71
2021/05/18 16:01:53;;;;;;;7.20;5.77;;;15.60;99.90;;;;;;4938344;29;20430;-71
2021/05/18 16:04:19;;;;;;;6.93;6.23;;;15.40;99.90;;;;;;4942406;29;20245;-71
2021/05/18 16:06:44;;;;;;;7.53;6.83;;;15.10;99.90;;;;;;4942958;29;20413;-70
2021/05/18 16:09:11;;;;;;;8.47;7.23;;;15.00;99.90;;;;;;4935283;29;20197;-71
2021/05/18 16:11:38;;;;;;;7.80;7.20;;;15.10;99.90;;;;;;4925620;29;20990;-71
2021/05/18 16:14:04;;;;;;;7.33;6.63;;;15.10;99.90;;;;;;4935574;29;20418;-71
2021/05/18 16:16:30;;;;;;;8.10;7.40;;;15.10;99.90;;;;;;4935329;29;20529;-71
2021/05/18 16:18:56;;;;;;;7.80;7.10;;;15.20;99.90;;;;;;4917927;29;20238;-70
2021/05/18 16:21:22;;;;;;;7.27;6.30;;;15.20;99.90;;;;;;4930607;29;20225;-71
2021/05/18 16:23:50;;;;;;;7.67;7.07;;;15.20;99.90;;;;;;4934171;29;20285;-70
2021/05/18 16:26:18;;;;;;;6.60;6.10;;;15.10;99.90;;;;;;4933043;29;20525;-71
2021/05/18 16:28:45;;;;;;;7.67;6.97;;;15.10;99.90;;;;;;4934643;29;20957;-70
2021/05/18 16:31:10;;;;;;;6.67;6.10;;;15.10;99.90;;;;;;4932591;29;20442;-70
2021/05/18 16:33:37;;;;;;;7.33;6.63;;;15.10;99.90;;;;;;4929926;29;20919;-70
2021/05/18 16:36:05;;;;;;;6.90;6.30;;;15.10;99.90;;;;;;4914547;29;20211;-71
2021/05/18 16:38:31;;;;;;;6.90;6.40;;;15.10;99.90;;;;;;4924485;29;20421;-70
2021/05/18 16:40:57;;;;;;;7.80;7.10;;;15.10;99.90;;;;;;4930276;29;21124;-69
2021/05/18 16:43:25;;;;;;;7.30;6.80;;;15.10;99.90;;;;;;4934386;29;20212;-70
2021/05/18 16:45:52;;;;;;;6.93;6.33;;;15.30;99.90;;;;;;4923512;29;20486;-70
2021/05/18 16:48:18;;;;;;;6.70;6.20;;;15.40;99.90;;;;;;4927771;29;21025;-70
2021/05/18 16:50:45;;;;;;;7.00;6.30;;;15.60;99.90;;;;;;4935230;29;20426;-70
2021/05/18 16:53:11;;;;;;;8.40;7.60;;;15.70;99.90;;;;;;4933347;29;20438;-69
2021/05/18 16:55:37;;;;;;;8.33;7.53;;;15.60;99.90;;;;;;4922923;29;20979;-69
2021/05/18 16:58:03;;;;;;;9.13;7.40;;;15.50;99.90;;;;;;4930602;29;20434;-70
2021/05/18 17:00:29;;;;;;;6.93;6.37;;;15.60;99.90;;;;;;4934782;29;20426;-69
2021/05/18 17:02:54;;;;;;;8.30;7.60;;;15.50;99.90;;;;;;4931513;29;20508;-70
2021/05/18 17:05:20;;;;;;;8.30;7.03;;;15.50;99.90;;;;;;4931126;29;20237;-70
2021/05/18 17:07:45;;;;;;;7.75;6.95;;;15.50;99.90;;;;;;4934211;29;20444;-70
2021/05/18 17:10:11;;;;;;;7.03;6.47;;;15.40;99.90;;;;;;4935082;29;20190;-69
2021/05/18 17:12:37;;;;;;;6.63;6.03;;;15.40;99.90;;;;;;4934105;29;20194;-70
2021/05/18 17:15:05;;;;;;;8.47;7.53;;;15.30;99.90;;;;;;4932778;29;20485;-69
2021/05/18 17:17:30;;;;;;;6.50;6.00;;;15.30;99.90;;;;;;4933450;29;20198;-70
2021/05/18 17:19:56;;;;;;;7.13;6.43;;;15.30;99.90;;;;;;4933931;29;20449;-71
2021/05/18 17:22:24;;;;;;;8.13;6.83;;;15.20;99.90;;;;;;4933866;29;20194;-69
2021/05/18 17:24:50;;;;;;;7.97;7.27;;;15.20;99.90;;;;;;4926107;29;20494;-69
2021/05/18 17:27:15;;;;;;;7.70;7.00;;;15.10;99.90;;;;;;4929274;29;20802;-70
2021/05/18 17:29:41;;;;;;;8.20;7.40;;;15.10;99.90;;;;;;4933153;29;20517;-70
2021/05/18 17:32:10;;;;;;;9.07;8.10;;;15.00;99.90;;;;;;4932982;29;20648;-70